sensor_id;sensor_type;location;lat;lon;timestamp;P1;durP1;ratioP1;P2;durP2;ratioP2
1174;SDS011;576;48.418;10.074;2023-11-21T00:01:22;7.37;;;2.80;;
1174;SDS011;576;48.418;10.074;2023-11-21T00:03:52;3.97;;;1.90;;
1174;SDS011;576;48.418;10.074;2023-11-21T00:06:21;4.17;;;2.50;;
1174;SDS011;576;48.418;10.074;2023-11-21T00:08:50;3.80;;;1.83;;
1174;SDS011;576;48.418;10.074;2023-11-21T00:11:18;2.20;;;2.00;;
1174;SDS011;576;48.418;10.074;2023-11-21T00:13:46;4.37;;;2.63;;
1174;SDS011;576;48.418;10.074;2023-11-21T00:16:16;2.10;;;1.90;;
1174;SDS011;576;48.418;10.074;2023-11-21T00:18:44;3.30;;;1.80;;
1174;SDS011;576;48.418;10.074;2023-11-21T00:21:15;3.53;;;2.53;;
1174;SDS011;576;48.418;10.074;2023-11-21T00:23:43;2.57;;;2.37;;
1174;SDS011;576;48.418;10.074;2023-11-21T00:26:11;3.13;;;1.97;;
1174;SDS011;576;48.418;10.074;2023-11-21T00:28:44;4.07;;;2.17;;
1174;SDS011;576;48.418;10.074;2023-11-21T00:31:13;2.30;;;1.80;;
1174;SDS011;576;48.418;10.074;2023-11-21T00:33:41;2.50;;;2.00;;
1174;SDS011;576;48.418;10.074;2023-11-21T00:36:09;2.67;;;1.90;;
1174;SDS011;576;48.418;10.074;2023-11-21T00:38:40;2.50;;;2.20;;
1174;SDS011;576;48.418;10.074;2023-11-21T00:41:08;2.40;;;2.20;;
1174;SDS011;576;48.418;10.074;2023-11-21T00:43:36;3.17;;;2.20;;
1174;SDS011;576;48.418;10.074;2023-11-21T00:46:05;2.27;;;2.07;;
1174;SDS011;576;48.418;10.074;2023-11-21T00:48:34;2.70;;;1.80;;
1174;SDS011;576;48.418;10.074;2023-11-21T00:51:03;3.63;;;1.73;;
1174;SDS011;576;48.418;10.074;2023-11-21T00:53:32;2.47;;;2.10;;
1174;SDS011;576;48.418;10.074;2023-11-21T00:56:02;4.90;;;2.07;;
1174;SDS011;576;48.418;10.074;2023-11-21T00:58:30;2.47;;;1.80;;
1174;SDS011;576;48.418;10.074;2023-11-21T01:00:59;3.57;;;2.40;;
1174;SDS011;576;48.418;10.074;2023-11-21T01:03:27;2.50;;;1.60;;
1174;SDS011;576;48.418;10.074;2023-11-21T01:05:56;2.77;;;2.13;;
1174;SDS011;576;48.418;10.074;2023-11-21T01:08:24;2.30;;;1.83;;
1174;SDS011;576;48.418;10.074;2023-11-21T01:10:52;2.00;;;1.80;;
1174;SDS011;576;48.418;10.074;2023-11-21T01:13:22;3.43;;;2.10;;
1174;SDS011;576;48.418;10.074;2023-11-21T01:15:56;2.70;;;1.80;;
1174;SDS011;576;48.418;10.074;2023-11-21T01:18:24;1.63;;;1.53;;
1174;SDS011;576;48.418;10.074;2023-11-21T01:20:52;4.83;;;1.87;;
1174;SDS011;576;48.418;10.074;2023-11-21T01:23:21;2.93;;;2.17;;
1174;SDS011;576;48.418;10.074;2023-11-21T01:25:49;2.30;;;1.63;;
1174;SDS011;576;48.418;10.074;2023-11-21T01:28:18;2.40;;;1.70;;
1174;SDS011;576;48.418;10.074;2023-11-21T01:30:48;1.70;;;1.47;;
1174;SDS011;576;48.418;10.074;2023-11-21T01:33:16;1.43;;;1.33;;
1174;SDS011;576;48.418;10.074;2023-11-21T01:35:45;2.13;;;1.93;;
1174;SDS011;576;48.418;10.074;2023-11-21T01:38:13;2.20;;;2.03;;
1174;SDS011;576;48.418;10.074;2023-11-21T01:40:43;2.53;;;2.00;;
1174;SDS011;576;48.418;10.074;2023-11-21T01:43:12;3.10;;;2.13;;
1174;SDS011;576;48.418;10.074;2023-11-21T01:45:40;2.43;;;1.70;;
1174;SDS011;576;48.418;10.074;2023-11-21T01:48:10;2.70;;;1.70;;
1174;SDS011;576;48.418;10.074;2023-11-21T01:50:39;2.60;;;2.07;;
1174;SDS011;576;48.418;10.074;2023-11-21T01:53:07;1.63;;;1.53;;
1174;SDS011;576;48.418;10.074;2023-11-21T01:55:36;1.40;;;1.40;;
1174;SDS011;576;48.418;10.074;2023-11-21T01:58:05;5.27;;;1.77;;
1174;SDS011;576;48.418;10.074;2023-11-21T02:00:34;2.90;;;1.70;;
1174;SDS011;576;48.418;10.074;2023-11-21T02:03:03;1.80;;;1.70;;
1174;SDS011;576;48.418;10.074;2023-11-21T02:05:34;2.00;;;1.77;;
1174;SDS011;576;48.418;10.074;2023-11-21T02:08:03;2.13;;;1.90;;
1174;SDS011;576;48.418;10.074;2023-11-21T02:10:31;2.23;;;1.73;;
1174;SDS011;576;48.418;10.074;2023-11-21T02:13:00;1.67;;;1.57;;
1174;SDS011;576;48.418;10.074;2023-11-21T02:15:29;1.50;;;1.20;;
1174;SDS011;576;48.418;10.074;2023-11-21T02:17:58;1.40;;;1.30;;
1174;SDS011;576;48.418;10.074;2023-11-21T02:20:27;2.47;;;1.80;;
1174;SDS011;576;48.418;10.074;2023-11-21T02:22:57;3.40;;;1.80;;
1174;SDS011;576;48.418;10.074;2023-11-21T02:25:28;2.13;;;1.67;;
1174;SDS011;576;48.418;10.074;2023-11-21T02:27:58;2.50;;;2.00;;
1174;SDS011;576;48.418;10.074;2023-11-21T02:30:29;1.43;;;1.33;;
1174;SDS011;576;48.418;10.074;2023-11-21T02:32:59;2.30;;;1.53;;
1174;SDS011;576;48.418;10.074;2023-11-21T02:35:28;1.87;;;1.77;;
1174;SDS011;576;48.418;10.074;2023-11-21T02:38:00;2.30;;;1.83;;
1174;SDS011;576;48.418;10.074;2023-11-21T02:40:29;1.70;;;1.60;;
1174;SDS011;576;48.418;10.074;2023-11-21T02:42:57;4.73;;;1.60;;
1174;SDS011;576;48.418;10.074;2023-11-21T02:45:26;1.97;;;1.80;;
1174;SDS011;576;48.418;10.074;2023-11-21T02:47:54;1.50;;;1.40;;
1174;SDS011;576;48.418;10.074;2023-11-21T02:50:25;3.00;;;1.43;;
1174;SDS011;576;48.418;10.074;2023-11-21T02:52:54;1.37;;;1.17;;
1174;SDS011;576;48.418;10.074;2023-11-21T02:55:25;1.93;;;1.83;;
1174;SDS011;576;48.418;10.074;2023-11-21T02:57:53;3.13;;;1.33;;
1174;SDS011;576;48.418;10.074;2023-11-21T03:00:23;1.80;;;1.03;;
1174;SDS011;576;48.418;10.074;2023-11-21T03:02:54;1.70;;;1.60;;
1174;SDS011;576;48.418;10.074;2023-11-21T03:05:25;1.93;;;1.60;;
1174;SDS011;576;48.418;10.074;2023-11-21T03:07:53;2.73;;;1.13;;
1174;SDS011;576;48.418;10.074;2023-11-21T03:10:21;3.90;;;2.27;;
1174;SDS011;576;48.418;10.074;2023-11-21T03:12:51;1.63;;;1.27;;
1174;SDS011;576;48.418;10.074;2023-11-21T03:15:19;3.13;;;1.77;;
1174;SDS011;576;48.418;10.074;2023-11-21T03:17:47;2.60;;;0.93;;
1174;SDS011;576;48.418;10.074;2023-11-21T03:20:16;1.50;;;1.40;;
1174;SDS011;576;48.418;10.074;2023-11-21T03:22:45;2.60;;;1.40;;
1174;SDS011;576;48.418;10.074;2023-11-21T03:25:14;2.07;;;1.70;;
1174;SDS011;576;48.418;10.074;2023-11-21T03:27:44;1.90;;;1.30;;
1174;SDS011;576;48.418;10.074;2023-11-21T03:30:13;1.57;;;1.30;;
1174;SDS011;576;48.418;10.074;2023-11-21T03:32:43;1.57;;;1.47;;
1174;SDS011;576;48.418;10.074;2023-11-21T03:35:11;2.20;;;1.00;;
1174;SDS011;576;48.418;10.074;2023-11-21T03:37:39;3.37;;;2.00;;
1174;SDS011;576;48.418;10.074;2023-11-21T03:40:09;2.57;;;1.93;;
1174;SDS011;576;48.418;10.074;2023-11-21T03:42:39;1.33;;;1.17;;
1174;SDS011;576;48.418;10.074;2023-11-21T03:45:08;2.20;;;1.63;;
1174;SDS011;576;48.418;10.074;2023-11-21T03:47:40;1.83;;;1.17;;
1174;SDS011;576;48.418;10.074;2023-11-21T03:50:09;2.23;;;1.60;;
1174;SDS011;576;48.418;10.074;2023-11-21T03:52:38;1.80;;;1.07;;
1174;SDS011;576;48.418;10.074;2023-11-21T03:55:06;2.03;;;1.63;;
1174;SDS011;576;48.418;10.074;2023-11-21T03:57:39;1.90;;;1.20;;
1174;SDS011;576;48.418;10.074;2023-11-21T04:00:08;2.47;;;1.50;;
1174;SDS011;576;48.418;10.074;2023-11-21T04:02:41;1.70;;;1.27;;
1174;SDS011;576;48.418;10.074;2023-11-21T04:05:10;1.60;;;1.50;;
1174;SDS011;576;48.418;10.074;2023-11-21T04:07:38;3.50;;;0.97;;
1174;SDS011;576;48.418;10.074;2023-11-21T04:10:07;1.70;;;1.10;;
1174;SDS011;576;48.418;10.074;2023-11-21T04:12:38;3.37;;;1.37;;
1174;SDS011;576;48.418;10.074;2023-11-21T04:15:07;3.57;;;1.57;;
1174;SDS011;576;48.418;10.074;2023-11-21T04:17:36;2.00;;;1.90;;
1174;SDS011;576;48.418;10.074;2023-11-21T04:20:07;1.93;;;1.20;;
1174;SDS011;576;48.418;10.074;2023-11-21T04:22:37;1.70;;;1.23;;
1174;SDS011;576;48.418;10.074;2023-11-21T04:25:11;2.87;;;1.50;;
1174;SDS011;576;48.418;10.074;2023-11-21T04:27:42;1.17;;;1.07;;
1174;SDS011;576;48.418;10.074;2023-11-21T04:30:12;1.20;;;1.10;;
1174;SDS011;576;48.418;10.074;2023-11-21T04:32:41;1.93;;;1.30;;
1174;SDS011;576;48.418;10.074;2023-11-21T04:35:10;3.47;;;1.00;;
1174;SDS011;576;48.418;10.074;2023-11-21T04:37:39;1.60;;;1.40;;
1174;SDS011;576;48.418;10.074;2023-11-21T04:40:07;2.10;;;1.40;;
1174;SDS011;576;48.418;10.074;2023-11-21T04:42:36;1.20;;;1.10;;
1174;SDS011;576;48.418;10.074;2023-11-21T04:45:05;1.50;;;1.40;;
1174;SDS011;576;48.418;10.074;2023-11-21T04:47:38;1.00;;;1.00;;
1174;SDS011;576;48.418;10.074;2023-11-21T04:50:06;1.07;;;1.07;;
1174;SDS011;576;48.418;10.074;2023-11-21T04:52:36;0.90;;;0.87;;
1174;SDS011;576;48.418;10.074;2023-11-21T04:55:04;1.57;;;1.20;;
1174;SDS011;576;48.418;10.074;2023-11-21T04:57:36;1.93;;;0.90;;
1174;SDS011;576;48.418;10.074;2023-11-21T05:00:05;1.13;;;0.97;;
1174;SDS011;576;48.418;10.074;2023-11-21T05:02:35;1.30;;;1.20;;
1174;SDS011;576;48.418;10.074;2023-11-21T05:05:05;4.73;;;1.13;;
1174;SDS011;576;48.418;10.074;2023-11-21T05:07:34;1.27;;;1.00;;
1174;SDS011;576;48.418;10.074;2023-11-21T05:10:05;2.00;;;1.30;;
1174;SDS011;576;48.418;10.074;2023-11-21T05:12:37;1.73;;;0.90;;
1174;SDS011;576;48.418;10.074;2023-11-21T05:15:08;1.27;;;1.17;;
1174;SDS011;576;48.418;10.074;2023-11-21T05:17:37;1.40;;;1.10;;
1174;SDS011;576;48.418;10.074;2023-11-21T05:20:08;1.80;;;1.17;;
1174;SDS011;576;48.418;10.074;2023-11-21T05:22:38;1.83;;;1.33;;
1174;SDS011;576;48.418;10.074;2023-11-21T05:25:08;1.20;;;1.10;;
1174;SDS011;576;48.418;10.074;2023-11-21T05:27:38;0.97;;;0.90;;
1174;SDS011;576;48.418;10.074;2023-11-21T05:30:06;0.70;;;0.63;;
1174;SDS011;576;48.418;10.074;2023-11-21T05:32:38;1.60;;;1.20;;
1174;SDS011;576;48.418;10.074;2023-11-21T05:35:08;1.00;;;1.00;;
1174;SDS011;576;48.418;10.074;2023-11-21T05:37:41;0.90;;;0.90;;
1174;SDS011;576;48.418;10.074;2023-11-21T05:40:11;1.37;;;1.10;;
1174;SDS011;576;48.418;10.074;2023-11-21T05:42:40;1.20;;;1.10;;
1174;SDS011;576;48.418;10.074;2023-11-21T05:45:09;1.23;;;0.87;;
1174;SDS011;576;48.418;10.074;2023-11-21T05:47:40;5.33;;;1.43;;
1174;SDS011;576;48.418;10.074;2023-11-21T05:50:10;1.60;;;1.50;;
1174;SDS011;576;48.418;10.074;2023-11-21T05:52:41;2.60;;;1.10;;
1174;SDS011;576;48.418;10.074;2023-11-21T05:55:10;1.20;;;0.80;;
1174;SDS011;576;48.418;10.074;2023-11-21T05:57:40;2.70;;;1.00;;
1174;SDS011;576;48.418;10.074;2023-11-21T06:00:10;1.57;;;1.10;;
1174;SDS011;576;48.418;10.074;2023-11-21T06:02:45;3.77;;;1.43;;
1174;SDS011;576;48.418;10.074;2023-11-21T06:05:13;2.33;;;1.23;;
1174;SDS011;576;48.418;10.074;2023-11-21T06:07:42;1.60;;;1.50;;
1174;SDS011;576;48.418;10.074;2023-11-21T06:10:12;1.13;;;1.00;;
1174;SDS011;576;48.418;10.074;2023-11-21T06:12:41;2.20;;;1.63;;
1174;SDS011;576;48.418;10.074;2023-11-21T06:15:10;2.97;;;1.27;;
1174;SDS011;576;48.418;10.074;2023-11-21T06:17:40;1.13;;;1.03;;
1174;SDS011;576;48.418;10.074;2023-11-21T06:20:11;4.23;;;3.23;;
1174;SDS011;576;48.418;10.074;2023-11-21T06:22:42;4.33;;;1.20;;
1174;SDS011;576;48.418;10.074;2023-11-21T06:25:12;1.80;;;1.13;;
1174;SDS011;576;48.418;10.074;2023-11-21T06:27:41;3.33;;;1.20;;
1174;SDS011;576;48.418;10.074;2023-11-21T06:30:12;1.77;;;1.53;;
1174;SDS011;576;48.418;10.074;2023-11-21T06:32:42;1.57;;;1.13;;
1174;SDS011;576;48.418;10.074;2023-11-21T06:35:12;2.90;;;1.93;;
1174;SDS011;576;48.418;10.074;2023-11-21T06:37:43;1.37;;;1.10;;
1174;SDS011;576;48.418;10.074;2023-11-21T06:40:17;1.30;;;1.20;;
1174;SDS011;576;48.418;10.074;2023-11-21T06:42:47;3.03;;;1.43;;
1174;SDS011;576;48.418;10.074;2023-11-21T06:45:16;3.63;;;1.30;;
1174;SDS011;576;48.418;10.074;2023-11-21T06:47:44;4.40;;;1.70;;
1174;SDS011;576;48.418;10.074;2023-11-21T06:50:13;3.07;;;1.70;;
1174;SDS011;576;48.418;10.074;2023-11-21T06:52:42;2.27;;;1.60;;
1174;SDS011;576;48.418;10.074;2023-11-21T06:55:10;2.73;;;1.57;;
1174;SDS011;576;48.418;10.074;2023-11-21T06:57:41;4.97;;;2.03;;
1174;SDS011;576;48.418;10.074;2023-11-21T07:00:09;5.13;;;2.00;;
1174;SDS011;576;48.418;10.074;2023-11-21T07:02:38;7.37;;;2.77;;
1174;SDS011;576;48.418;10.074;2023-11-21T07:05:07;4.87;;;2.73;;
1174;SDS011;576;48.418;10.074;2023-11-21T07:07:35;4.50;;;1.80;;
1174;SDS011;576;48.418;10.074;2023-11-21T07:10:04;7.93;;;3.53;;
1174;SDS011;576;48.418;10.074;2023-11-21T07:12:33;6.80;;;2.30;;
1174;SDS011;576;48.418;10.074;2023-11-21T07:15:04;7.03;;;2.50;;
1174;SDS011;576;48.418;10.074;2023-11-21T07:17:35;7.17;;;3.07;;
1174;SDS011;576;48.418;10.074;2023-11-21T07:20:07;8.27;;;3.00;;
1174;SDS011;576;48.418;10.074;2023-11-21T07:22:37;12.33;;;3.83;;
1174;SDS011;576;48.418;10.074;2023-11-21T07:25:07;8.70;;;3.73;;
1174;SDS011;576;48.418;10.074;2023-11-21T07:27:36;6.00;;;3.07;;
1174;SDS011;576;48.418;10.074;2023-11-21T07:30:06;7.90;;;2.70;;
1174;SDS011;576;48.418;10.074;2023-11-21T07:32:36;8.63;;;3.00;;
1174;SDS011;576;48.418;10.074;2023-11-21T07:35:07;7.43;;;2.97;;
1174;SDS011;576;48.418;10.074;2023-11-21T07:37:36;7.93;;;2.93;;
1174;SDS011;576;48.418;10.074;2023-11-21T07:40:05;6.83;;;3.00;;
1174;SDS011;576;48.418;10.074;2023-11-21T07:42:35;9.43;;;3.00;;
1174;SDS011;576;48.418;10.074;2023-11-21T07:45:06;4.50;;;2.50;;
1174;SDS011;576;48.418;10.074;2023-11-21T07:47:35;5.63;;;2.70;;
1174;SDS011;576;48.418;10.074;2023-11-21T07:50:03;5.63;;;2.10;;
1174;SDS011;576;48.418;10.074;2023-11-21T07:52:34;5.40;;;2.43;;
1174;SDS011;576;48.418;10.074;2023-11-21T07:55:02;5.97;;;2.87;;
1174;SDS011;576;48.418;10.074;2023-11-21T07:57:31;5.70;;;2.90;;
1174;SDS011;576;48.418;10.074;2023-11-21T07:59:59;5.67;;;2.00;;
1174;SDS011;576;48.418;10.074;2023-11-21T08:02:39;5.00;;;2.63;;
1174;SDS011;576;48.418;10.074;2023-11-21T08:05:09;4.13;;;1.80;;
1174;SDS011;576;48.418;10.074;2023-11-21T08:07:50;5.17;;;1.90;;
1174;SDS011;576;48.418;10.074;2023-11-21T08:10:18;5.87;;;2.57;;
1174;SDS011;576;48.418;10.074;2023-11-21T08:12:48;4.03;;;2.63;;
1174;SDS011;576;48.418;10.074;2023-11-21T08:15:17;5.13;;;2.40;;
1174;SDS011;576;48.418;10.074;2023-11-21T08:17:47;4.70;;;2.23;;
1174;SDS011;576;48.418;10.074;2023-11-21T08:20:15;4.23;;;2.33;;
1174;SDS011;576;48.418;10.074;2023-11-21T08:22:44;4.10;;;2.00;;
1174;SDS011;576;48.418;10.074;2023-11-21T08:25:14;2.37;;;1.87;;
1174;SDS011;576;48.418;10.074;2023-11-21T08:27:43;3.20;;;1.80;;
1174;SDS011;576;48.418;10.074;2023-11-21T08:30:12;4.70;;;2.13;;
1174;SDS011;576;48.418;10.074;2023-11-21T08:32:43;6.40;;;3.03;;
1174;SDS011;576;48.418;10.074;2023-11-21T08:35:13;4.83;;;2.20;;
1174;SDS011;576;48.418;10.074;2023-11-21T08:37:42;3.53;;;1.93;;
1174;SDS011;576;48.418;10.074;2023-11-21T08:40:11;3.33;;;1.77;;
1174;SDS011;576;48.418;10.074;2023-11-21T08:42:43;3.40;;;1.60;;
1174;SDS011;576;48.418;10.074;2023-11-21T08:45:13;6.70;;;2.47;;
1174;SDS011;576;48.418;10.074;2023-11-21T08:47:41;6.23;;;1.90;;
1174;SDS011;576;48.418;10.074;2023-11-21T08:50:11;5.60;;;1.83;;
1174;SDS011;576;48.418;10.074;2023-11-21T08:52:41;2.10;;;1.90;;
1174;SDS011;576;48.418;10.074;2023-11-21T08:55:10;4.27;;;1.67;;
1174;SDS011;576;48.418;10.074;2023-11-21T08:57:39;3.53;;;1.90;;
1174;SDS011;576;48.418;10.074;2023-11-21T09:00:08;2.23;;;1.90;;
1174;SDS011;576;48.418;10.074;2023-11-21T09:02:38;4.13;;;1.80;;
1174;SDS011;576;48.418;10.074;2023-11-21T09:05:08;2.80;;;1.93;;
1174;SDS011;576;48.418;10.074;2023-11-21T09:07:39;4.70;;;1.73;;
1174;SDS011;576;48.418;10.074;2023-11-21T09:10:09;5.40;;;1.90;;
1174;SDS011;576;48.418;10.074;2023-11-21T09:12:37;6.03;;;2.33;;
1174;SDS011;576;48.418;10.074;2023-11-21T09:15:06;3.60;;;1.93;;
1174;SDS011;576;48.418;10.074;2023-11-21T09:17:37;2.13;;;1.60;;
1174;SDS011;576;48.418;10.074;2023-11-21T09:20:07;3.43;;;1.50;;
1174;SDS011;576;48.418;10.074;2023-11-21T09:22:38;3.00;;;2.50;;
1174;SDS011;576;48.418;10.074;2023-11-21T09:25:07;4.73;;;2.30;;
1174;SDS011;576;48.418;10.074;2023-11-21T09:27:36;4.33;;;2.43;;
1174;SDS011;576;48.418;10.074;2023-11-21T09:30:04;3.00;;;1.87;;
1174;SDS011;576;48.418;10.074;2023-11-21T09:32:36;3.00;;;1.70;;
1174;SDS011;576;48.418;10.074;2023-11-21T09:35:07;3.20;;;1.43;;
1174;SDS011;576;48.418;10.074;2023-11-21T09:37:36;3.93;;;2.20;;
1174;SDS011;576;48.418;10.074;2023-11-21T09:40:07;2.87;;;2.23;;
1174;SDS011;576;48.418;10.074;2023-11-21T09:42:43;1.57;;;1.27;;
1174;SDS011;576;48.418;10.074;2023-11-21T09:45:18;3.43;;;1.97;;
1174;SDS011;576;48.418;10.074;2023-11-21T09:47:52;2.67;;;1.73;;
1174;SDS011;576;48.418;10.074;2023-11-21T09:50:22;3.50;;;1.47;;
1174;SDS011;576;48.418;10.074;2023-11-21T09:52:57;3.37;;;1.93;;
1174;SDS011;576;48.418;10.074;2023-11-21T09:55:34;1.60;;;1.23;;
1174;SDS011;576;48.418;10.074;2023-11-21T09:58:05;2.63;;;1.63;;
1174;SDS011;576;48.418;10.074;2023-11-21T10:00:34;1.80;;;1.30;;
1174;SDS011;576;48.418;10.074;2023-11-21T10:03:03;2.73;;;1.97;;
1174;SDS011;576;48.418;10.074;2023-11-21T10:05:31;4.40;;;1.70;;
1174;SDS011;576;48.418;10.074;2023-11-21T10:08:02;1.97;;;1.37;;
1174;SDS011;576;48.418;10.074;2023-11-21T10:10:36;3.30;;;1.70;;
1174;SDS011;576;48.418;10.074;2023-11-21T10:13:09;1.47;;;1.37;;
1174;SDS011;576;48.418;10.074;2023-11-21T10:15:43;2.37;;;1.47;;
1174;SDS011;576;48.418;10.074;2023-11-21T10:18:15;4.70;;;2.20;;
1174;SDS011;576;48.418;10.074;2023-11-21T10:20:45;1.73;;;1.50;;
1174;SDS011;576;48.418;10.074;2023-11-21T10:23:21;1.93;;;1.43;;
1174;SDS011;576;48.418;10.074;2023-11-21T10:25:50;4.90;;;1.90;;
1174;SDS011;576;48.418;10.074;2023-11-21T10:28:20;2.00;;;1.30;;
1174;SDS011;576;48.418;10.074;2023-11-21T10:30:48;1.60;;;1.50;;
1174;SDS011;576;48.418;10.074;2023-11-21T10:33:17;1.60;;;1.47;;
1174;SDS011;576;48.418;10.074;2023-11-21T10:35:57;2.80;;;1.70;;
1174;SDS011;576;48.418;10.074;2023-11-21T10:38:29;1.63;;;1.50;;
1174;SDS011;576;48.418;10.074;2023-11-21T10:41:10;2.30;;;1.60;;
1174;SDS011;576;48.418;10.074;2023-11-21T10:43:43;1.63;;;1.50;;
1174;SDS011;576;48.418;10.074;2023-11-21T10:46:11;2.23;;;1.33;;
1174;SDS011;576;48.418;10.074;2023-11-21T10:48:41;1.23;;;0.90;;
1174;SDS011;576;48.418;10.074;2023-11-21T10:51:09;1.40;;;1.30;;
1174;SDS011;576;48.418;10.074;2023-11-21T10:53:40;1.63;;;1.53;;
1174;SDS011;576;48.418;10.074;2023-11-21T10:56:11;2.27;;;1.30;;
1174;SDS011;576;48.418;10.074;2023-11-21T10:58:44;2.03;;;1.77;;
1174;SDS011;576;48.418;10.074;2023-11-21T11:01:13;2.30;;;1.50;;
1174;SDS011;576;48.418;10.074;2023-11-21T11:03:45;2.20;;;1.87;;
1174;SDS011;576;48.418;10.074;2023-11-21T11:06:15;1.97;;;1.50;;
1174;SDS011;576;48.418;10.074;2023-11-21T11:08:45;3.17;;;1.43;;
1174;SDS011;576;48.418;10.074;2023-11-21T11:11:15;2.23;;;1.43;;
1174;SDS011;576;48.418;10.074;2023-11-21T11:13:45;2.93;;;1.20;;
1174;SDS011;576;48.418;10.074;2023-11-21T11:16:13;2.37;;;1.57;;
1174;SDS011;576;48.418;10.074;2023-11-21T11:18:44;1.50;;;1.40;;
1174;SDS011;576;48.418;10.074;2023-11-21T11:21:16;3.30;;;1.70;;
1174;SDS011;576;48.418;10.074;2023-11-21T11:23:58;2.47;;;2.27;;
1174;SDS011;576;48.418;10.074;2023-11-21T11:26:41;2.23;;;1.73;;
1174;SDS011;576;48.418;10.074;2023-11-21T11:29:16;1.73;;;1.63;;
1174;SDS011;576;48.418;10.074;2023-11-21T11:31:55;2.00;;;1.40;;
1174;SDS011;576;48.418;10.074;2023-11-21T11:34:35;1.43;;;1.33;;
1174;SDS011;576;48.418;10.074;2023-11-21T11:37:09;3.13;;;1.67;;
1174;SDS011;576;48.418;10.074;2023-11-21T11:39:39;3.10;;;2.00;;
1174;SDS011;576;48.418;10.074;2023-11-21T11:42:11;2.00;;;1.60;;
1174;SDS011;576;48.418;10.074;2023-11-21T11:44:51;2.00;;;1.40;;
1174;SDS011;576;48.418;10.074;2023-11-21T11:47:22;1.77;;;1.30;;
1174;SDS011;576;48.418;10.074;2023-11-21T11:49:55;1.40;;;1.17;;
1174;SDS011;576;48.418;10.074;2023-11-21T11:52:38;2.27;;;1.50;;
1174;SDS011;576;48.418;10.074;2023-11-21T11:55:10;2.17;;;1.27;;
1174;SDS011;576;48.418;10.074;2023-11-21T11:57:41;1.53;;;1.13;;
1174;SDS011;576;48.418;10.074;2023-11-21T12:00:10;2.27;;;1.87;;
1174;SDS011;576;48.418;10.074;2023-11-21T12:02:44;1.40;;;1.27;;
1174;SDS011;576;48.418;10.074;2023-11-21T12:05:14;1.13;;;0.90;;
1174;SDS011;576;48.418;10.074;2023-11-21T12:07:45;3.60;;;1.50;;
1174;SDS011;576;48.418;10.074;2023-11-21T12:10:18;1.83;;;1.53;;
1174;SDS011;576;48.418;10.074;2023-11-21T12:12:47;1.03;;;1.03;;
1174;SDS011;576;48.418;10.074;2023-11-21T12:15:17;1.17;;;1.07;;
1174;SDS011;576;48.418;10.074;2023-11-21T12:17:46;1.33;;;1.23;;
1174;SDS011;576;48.418;10.074;2023-11-21T12:20:16;1.40;;;1.30;;
1174;SDS011;576;48.418;10.074;2023-11-21T12:22:47;1.17;;;1.07;;
1174;SDS011;576;48.418;10.074;2023-11-21T12:25:20;2.10;;;1.40;;
1174;SDS011;576;48.418;10.074;2023-11-21T12:27:49;1.37;;;0.93;;
1174;SDS011;576;48.418;10.074;2023-11-21T12:30:19;2.37;;;1.30;;
1174;SDS011;576;48.418;10.074;2023-11-21T12:32:49;2.90;;;1.53;;
1174;SDS011;576;48.418;10.074;2023-11-21T12:35:19;1.80;;;1.30;;
1174;SDS011;576;48.418;10.074;2023-11-21T12:37:48;1.10;;;1.00;;
1174;SDS011;576;48.418;10.074;2023-11-21T12:40:18;1.70;;;1.57;;
1174;SDS011;576;48.418;10.074;2023-11-21T12:42:51;1.93;;;1.27;;
1174;SDS011;576;48.418;10.074;2023-11-21T12:45:20;2.47;;;1.40;;
1174;SDS011;576;48.418;10.074;2023-11-21T12:47:54;4.13;;;1.43;;
1174;SDS011;576;48.418;10.074;2023-11-21T12:50:26;2.80;;;1.30;;
1174;SDS011;576;48.418;10.074;2023-11-21T12:52:59;1.27;;;1.10;;
1174;SDS011;576;48.418;10.074;2023-11-21T12:55:31;1.23;;;1.13;;
1174;SDS011;576;48.418;10.074;2023-11-21T12:58:05;2.90;;;1.33;;
1174;SDS011;576;48.418;10.074;2023-11-21T13:03:31;3.53;;;1.13;;
1174;SDS011;576;48.418;10.074;2023-11-21T13:05:59;1.53;;;1.20;;
1174;SDS011;576;48.418;10.074;2023-11-21T13:08:29;1.50;;;1.40;;
1174;SDS011;576;48.418;10.074;2023-11-21T13:11:00;2.77;;;1.60;;
1174;SDS011;576;48.418;10.074;2023-11-21T13:13:29;1.93;;;1.40;;
1174;SDS011;576;48.418;10.074;2023-11-21T13:15:59;1.50;;;1.17;;
1174;SDS011;576;48.418;10.074;2023-11-21T13:18:31;0.90;;;0.90;;
1174;SDS011;576;48.418;10.074;2023-11-21T13:21:00;1.67;;;1.57;;
1174;SDS011;576;48.418;10.074;2023-11-21T13:23:34;1.30;;;1.20;;
1174;SDS011;576;48.418;10.074;2023-11-21T13:26:04;1.70;;;1.40;;
1174;SDS011;576;48.418;10.074;2023-11-21T13:28:33;2.70;;;1.70;;
1174;SDS011;576;48.418;10.074;2023-11-21T13:31:05;1.63;;;1.37;;
1174;SDS011;576;48.418;10.074;2023-11-21T13:33:47;1.07;;;1.00;;
1174;SDS011;576;48.418;10.074;2023-11-21T13:36:22;3.60;;;1.50;;
1174;SDS011;576;48.418;10.074;2023-11-21T13:38:50;1.53;;;1.43;;
1174;SDS011;576;48.418;10.074;2023-11-21T13:41:21;1.00;;;1.00;;
1174;SDS011;576;48.418;10.074;2023-11-21T13:43:54;2.70;;;1.40;;
1174;SDS011;576;48.418;10.074;2023-11-21T13:46:30;2.53;;;1.60;;
1174;SDS011;576;48.418;10.074;2023-11-21T13:49:04;2.33;;;1.47;;
1174;SDS011;576;48.418;10.074;2023-11-21T13:51:36;1.60;;;1.20;;
1174;SDS011;576;48.418;10.074;2023-11-21T13:54:08;2.10;;;1.87;;
1174;SDS011;576;48.418;10.074;2023-11-21T13:56:38;4.70;;;1.63;;
1174;SDS011;576;48.418;10.074;2023-11-21T13:59:11;1.20;;;1.10;;
1174;SDS011;576;48.418;10.074;2023-11-21T14:01:47;1.80;;;1.43;;
1174;SDS011;576;48.418;10.074;2023-11-21T14:04:24;1.10;;;1.10;;
1174;SDS011;576;48.418;10.074;2023-11-21T14:07:21;1.67;;;1.57;;
1174;SDS011;576;48.418;10.074;2023-11-21T14:10:02;1.57;;;1.40;;
1174;SDS011;576;48.418;10.074;2023-11-21T14:12:32;1.67;;;1.50;;
1174;SDS011;576;48.418;10.074;2023-11-21T14:15:05;2.33;;;1.63;;
1174;SDS011;576;48.418;10.074;2023-11-21T14:17:36;5.50;;;1.40;;
1174;SDS011;576;48.418;10.074;2023-11-21T14:20:08;3.70;;;1.60;;
1174;SDS011;576;48.418;10.074;2023-11-21T14:22:43;1.57;;;1.40;;
1174;SDS011;576;48.418;10.074;2023-11-21T14:25:11;2.07;;;1.93;;
1174;SDS011;576;48.418;10.074;2023-11-21T14:27:42;1.97;;;1.87;;
1174;SDS011;576;48.418;10.074;2023-11-21T14:30:10;5.70;;;1.73;;
1174;SDS011;576;48.418;10.074;2023-11-21T14:32:40;1.90;;;1.20;;
1174;SDS011;576;48.418;10.074;2023-11-21T14:35:09;1.40;;;0.93;;
1174;SDS011;576;48.418;10.074;2023-11-21T14:37:37;1.97;;;1.10;;
1174;SDS011;576;48.418;10.074;2023-11-21T14:40:06;2.50;;;1.80;;
1174;SDS011;576;48.418;10.074;2023-11-21T14:42:35;1.13;;;1.03;;
1174;SDS011;576;48.418;10.074;2023-11-21T14:45:08;3.27;;;1.20;;
1174;SDS011;576;48.418;10.074;2023-11-21T14:47:39;4.00;;;1.27;;
1174;SDS011;576;48.418;10.074;2023-11-21T14:50:13;1.30;;;1.20;;
1174;SDS011;576;48.418;10.074;2023-11-21T14:53:15;2.00;;;1.67;;
1174;SDS011;576;48.418;10.074;2023-11-21T14:55:51;1.50;;;1.30;;
1174;SDS011;576;48.418;10.074;2023-11-21T14:58:25;5.43;;;1.53;;
1174;SDS011;576;48.418;10.074;2023-11-21T15:00:55;1.73;;;1.30;;
1174;SDS011;576;48.418;10.074;2023-11-21T15:03:25;5.80;;;1.50;;
1174;SDS011;576;48.418;10.074;2023-11-21T15:06:10;3.90;;;1.30;;
1174;SDS011;576;48.418;10.074;2023-11-21T15:08:53;2.90;;;1.70;;
1174;SDS011;576;48.418;10.074;2023-11-21T15:11:40;2.03;;;1.33;;
1174;SDS011;576;48.418;10.074;2023-11-21T15:14:08;2.70;;;1.80;;
1174;SDS011;576;48.418;10.074;2023-11-21T15:16:38;2.83;;;1.63;;
1174;SDS011;576;48.418;10.074;2023-11-21T15:19:10;3.53;;;1.40;;
1174;SDS011;576;48.418;10.074;2023-11-21T15:21:44;2.33;;;1.50;;
1174;SDS011;576;48.418;10.074;2023-11-21T15:24:12;4.40;;;1.77;;
1174;SDS011;576;48.418;10.074;2023-11-21T15:26:41;2.07;;;1.50;;
1174;SDS011;576;48.418;10.074;2023-11-21T15:29:09;1.70;;;1.57;;
1174;SDS011;576;48.418;10.074;2023-11-21T15:31:39;2.60;;;1.60;;
1174;SDS011;576;48.418;10.074;2023-11-21T15:34:10;2.97;;;1.57;;
1174;SDS011;576;48.418;10.074;2023-11-21T15:36:38;3.07;;;1.27;;
1174;SDS011;576;48.418;10.074;2023-11-21T15:39:07;6.70;;;1.70;;